Time;durP1;ratioP1;P1;durP2;ratioP2;P2;SDS_P1;SDS_P2;PMS_P1;PMS_P2;Temp;Humidity;BMP_temperature;BMP_pressure;BME280_temperature;BME280_humidity;BME280_pressure;Samples;Min_cycle;Max_cycle;Signal;HPM_P1;HPM_P2
2022/02/11 00:00:38;;;;;;;;;;;;;;;-144.99;99.63;52696.78;5071868;28;20071;-58
2022/02/11 00:06:03;;;;;;;;;;;;;;;-144.99;100.00;52704.94;5071324;28;19990;-62
2022/02/11 00:08:29;;;;;;;;;;;;;;;-144.99;100.00;52692.69;5071588;28;20432;-61
2022/02/11 00:10:56;;;;;;;;;;;;;;;-144.99;100.00;52678.44;5070623;28;20037;-63
2022/02/11 00:13:22;;;;;;;;;;;;;;;-144.99;100.00;52725.31;5071522;28;19999;-61
2022/02/11 00:15:52;;;;;;;;;;;;;;;-144.99;100.00;52698.81;5071473;28;19985;-60
2022/02/11 00:18:20;;;;;;;;;;;;;;;-144.99;100.00;52684.53;5072006;28;20382;-60
2022/02/11 00:20:47;;;;;;;;;;;;;;;-144.99;100.00;52676.38;5071110;28;20479;-63
2022/02/11 00:23:14;;;;;;;;;;;;;;;-144.99;100.00;52717.16;5070131;28;20365;-61
2022/02/11 00:25:46;;;;;;;;;;;;;;;-144.99;100.00;52668.22;5071604;28;19996;-61
2022/02/11 00:33:39;;;;;;;;;;;;;;;-144.99;100.00;52696.78;5070435;28;20255;-62
2022/02/11 00:36:08;;;;;;;;;;;;;;;-144.99;100.00;52713.09;5070712;28;19980;-61
2022/02/11 00:38:46;;;;;;;;;;;;;;;-144.99;100.00;52709.00;5067222;28;19975;-61
2022/02/11 01:03:24;;;;;;;;;;;;;;;-144.99;100.00;52729.38;5070255;28;20050;-61
2022/02/11 01:05:52;;;;;;;;;;;;;;;-144.99;100.00;52717.16;5069363;28;20066;-65
2022/02/11 01:08:18;;;;;;;;;;;;;;;-144.99;100.00;52668.22;5070040;28;19984;-64
2022/02/11 01:10:45;;;;;;;;;;;;;;;-144.99;100.00;52698.81;5063947;28;19981;-66
2022/02/11 01:13:12;;;;;;;;;;;;;;;-144.99;100.00;52660.09;5067135;28;19992;-64
2022/02/11 01:15:43;;;;;;;;;;;;;;;-144.99;100.00;52704.94;5070044;28;19981;-65
2022/02/11 01:18:11;;;;;;;;;;;;;;;-144.99;100.00;52731.44;5069919;28;19980;-65
2022/02/11 01:20:47;;;;;;;;;;;;;;;-144.99;100.00;52688.63;5069770;28;19977;-65
2022/02/11 01:23:25;;;;;;;;;;;;;;;-144.99;100.00;52696.78;5069675;28;19997;-63
2022/02/11 01:26:06;;;;;;;;;;;;;;;-144.99;100.00;52684.53;5070403;28;20099;-64
2022/02/11 01:28:44;;;;;;;;;;;;;;;-144.99;100.00;52653.97;5069787;28;20023;-66
2022/02/11 01:31:19;;;;;;;;;;;;;;;-144.99;100.00;52696.78;5070779;28;19984;-65
2022/02/11 01:34:19;;;;;;;;;;;;;;;-144.99;100.00;52684.53;5070115;28;20066;-65
2022/02/11 01:37:07;;;;;;;;;;;;;;;-144.99;100.00;52713.09;5070156;28;19981;-65
2022/02/11 01:40:18;;;;;;;;;;;;;;;-144.99;100.00;52676.38;5069877;28;20345;-64
2022/02/11 01:45:56;;;;;;;;;;;;;;;-144.99;100.00;52660.09;5068871;28;19991;-65
2022/02/11 01:51:34;;;;;;;;;;;;;;;-144.99;100.00;52704.94;5013257;28;20065;-66
2022/02/11 01:54:07;;;;;;;;;;;;;;;-144.99;100.00;52700.84;5070049;28;20457;-66
2022/02/11 01:56:48;;;;;;;;;;;;;;;-144.99;100.00;52702.88;5070234;28;19987;-66
2022/02/11 02:13:13;;;;;;;;;;;;;;;-144.99;100.00;52704.94;5072750;28;19996;-64
2022/02/11 02:24:09;;;;;;;;;;;;;;;-144.99;100.00;52713.09;5072538;28;19999;-63
2022/02/11 02:26:57;;;;;;;;;;;;;;;-144.99;100.00;52688.63;5073121;28;20074;-63
2022/02/11 02:37:57;;;;;;;;;;;;;;;-144.99;100.00;52721.22;5064185;28;19984;-68
2022/02/11 02:50:10;;;;;;;;;;;;;;;-144.99;100.00;52688.63;5073038;28;20034;-66
2022/02/11 02:57:22;;;;;;;;;;;;;;;-144.99;100.00;52741.63;5059773;28;20042;-66
2022/02/11 03:00:19;;;;;;;;;;;;;;;-144.99;100.00;52715.13;5071864;28;19981;-63
2022/02/11 03:49:44;;;;;;;;;;;;;;;-144.99;100.00;52700.84;5064034;28;20009;-64
2022/02/11 03:52:31;;;;;;;;;;;;;;;-144.99;100.00;52725.31;5066630;28;20511;-65
2022/02/11 03:58:21;;;;;;;;;;;;;;;-144.99;100.00;52723.28;5064135;28;20051;-64
2022/02/11 04:26:10;;;;;;;;;;;;;;;-144.99;100.00;52641.72;5059758;28;20059;-63
2022/02/11 04:56:02;;;;;;;;;;;;;;;-144.99;100.00;52713.09;5070723;28;20003;-63
2022/02/11 05:01:13;;;;;;;;;;;;;;;-144.99;100.00;52717.16;5070836;28;19983;-66
2022/02/11 05:03:39;;;;;;;;;;;;;;;-144.99;100.00;52692.69;5070167;28;19998;-67
2022/02/11 05:06:05;;;;;;;;;;;;;;;-144.99;100.00;52717.16;5070304;28;19999;-65
2022/02/11 05:08:32;;;;;;;;;;;;;;;-144.99;100.00;52733.47;5069754;28;20467;-65
2022/02/11 05:11:00;;;;;;;;;;;;;;;-144.99;100.00;52692.69;5063233;28;20068;-65
2022/02/11 05:13:29;;;;;;;;;;;;;;;-144.99;100.00;52686.59;5070075;28;19988;-66
2022/02/11 05:15:55;;;;;;;;;;;;;;;-144.99;100.00;52713.09;5070050;28;20037;-67
2022/02/11 05:18:22;;;;;;;;;;;;;;;-144.99;100.00;52717.16;5070953;28;20447;-65
2022/02/11 05:20:49;;;;;;;;;;;;;;;-144.99;100.00;52709.00;5070107;28;20355;-66
2022/02/11 05:23:16;;;;;;;;;;;;;;;-144.99;100.00;52706.97;5062571;28;20037;-66
2022/02/11 05:25:43;;;;;;;;;;;;;;;-144.99;100.00;52721.22;5066092;28;20386;-67
2022/02/11 05:28:12;;;;;;;;;;;;;;;-144.99;100.00;52704.94;5070482;28;19981;-65
2022/02/11 05:30:39;;;;;;;;;;;;;;;-144.99;100.00;52696.78;5070026;28;19999;-67
2022/02/11 05:33:05;;;;;;;;;;;;;;;-144.99;100.00;52749.78;5070226;28;20000;-66
2022/02/11 05:35:32;;;;;;;;;;;;;;;-144.99;100.00;52737.53;5069459;28;20471;-64
2022/02/11 05:37:58;;;;;;;;;;;;;;;-144.99;100.00;52711.03;5070361;28;19984;-65
2022/02/11 05:40:25;;;;;;;;;;;;;;;-144.99;100.00;52692.69;5069947;28;19987;-65
2022/02/11 05:42:51;;;;;;;;;;;;;;;-144.99;100.00;52704.94;5070004;28;20026;-64
2022/02/11 05:45:19;;;;;;;;;;;;;;;-144.99;100.00;52664.16;5069410;28;19987;-65
2022/02/11 05:47:45;;;;;;;;;;;;;;;-144.99;100.00;52737.53;5064891;28;19993;-65
2022/02/11 05:50:12;;;;;;;;;;;;;;;-144.99;100.00;52704.94;5066908;28;19977;-65
2022/02/11 05:52:38;;;;;;;;;;;;;;;-144.99;100.00;52656.00;5069795;28;19979;-68
2022/02/11 05:55:07;;;;;;;;;;;;;;;-144.99;100.00;52700.84;5068231;28;20763;-69
2022/02/11 05:57:33;;;;;;;;;;;;;;;-144.99;100.00;52700.84;5069710;28;19987;-66
2022/02/11 06:00:02;;;;;;;;;;;;;;;-144.99;100.00;52696.78;5069798;28;19991;-66
2022/02/11 06:02:29;;;;;;;;;;;;;;;-144.99;100.00;52680.47;5070039;28;19987;-68
2022/02/11 06:04:57;;;;;;;;;;;;;;;-144.99;100.00;52717.16;5069187;28;20023;-66
2022/02/11 06:07:23;;;;;;;;;;;;;;;-144.99;100.00;52680.47;5069426;28;19992;-68
2022/02/11 06:09:50;;;;;;;;;;;;;;;-144.99;100.00;52704.94;5069478;28;20471;-66
2022/02/11 06:12:16;;;;;;;;;;;;;;;-144.99;100.00;52721.22;5069579;28;20426;-67
2022/02/11 06:14:42;;;;;;;;;;;;;;;-144.99;100.00;52692.69;4718459;28;9999889;-66
2022/02/11 06:17:09;;;;;;;;;;;;;;;-144.99;100.00;52709.00;5066274;28;19988;-66
2022/02/11 06:19:37;;;;;;;;;;;;;;;-144.99;100.00;52711.03;5066866;28;20403;-68
2022/02/11 06:22:03;;;;;;;;;;;;;;;-144.99;100.00;52709.00;5063945;28;19987;-68
2022/02/11 06:24:30;;;;;;;;;;;;;;;-144.99;100.00;52692.69;5058087;28;20484;-69
2022/02/11 06:26:56;;;;;;;;;;;;;;;-144.99;100.00;52680.47;5066224;28;19997;-68
2022/02/11 06:29:22;;;;;;;;;;;;;;;-144.99;100.00;52700.84;5066893;28;19984;-66
2022/02/11 06:31:49;;;;;;;;;;;;;;;-144.99;100.00;52702.88;5066521;28;20729;-68
2022/02/11 06:34:15;;;;;;;;;;;;;;;-144.99;100.00;52713.09;5066577;28;20005;-68
2022/02/11 06:36:43;;;;;;;;;;;;;;;-144.99;100.00;52731.44;5060705;28;20234;-67
2022/02/11 06:39:10;;;;;;;;;;;;;;;-144.99;100.00;52709.00;5058631;28;19988;-69
2022/02/11 06:41:36;;;;;;;;;;;;;;;-144.99;100.00;52670.28;5062330;28;20483;-66
2022/02/11 06:44:03;;;;;;;;;;;;;;;-144.99;100.00;52719.19;5066246;28;19977;-66
2022/02/11 06:46:29;;;;;;;;;;;;;;;-144.99;100.00;52704.94;5064998;28;19993;-66
2022/02/11 06:48:55;;;;;;;;;;;;;;;-144.99;100.00;52749.78;5066402;28;19990;-67
2022/02/11 06:51:22;;;;;;;;;;;;;;;-144.99;100.00;52721.22;5065826;28;20250;-68
2022/02/11 06:53:49;;;;;;;;;;;;;;;-144.99;100.00;52709.00;5065669;28;20024;-69
2022/02/11 06:56:16;;;;;;;;;;;;;;;-144.99;100.00;52698.81;5068125;28;20171;-67
2022/02/11 06:58:44;;;;;;;;;;;;;;;-144.99;100.00;52666.19;5070050;28;19984;-68
2022/02/11 07:01:11;;;;;;;;;;;;;;;-144.99;100.00;52715.13;5069692;28;20087;-66
2022/02/11 07:03:37;;;;;;;;;;;;;;;-144.99;100.00;52709.00;5069223;28;20410;-67
2022/02/11 07:06:03;;;;;;;;;;;;;;;-144.99;100.00;52721.22;5069046;28;19990;-66
2022/02/11 07:08:30;;;;;;;;;;;;;;;-144.99;100.00;52725.31;5066706;28;19981;-66
2022/02/11 07:10:58;;;;;;;;;;;;;;;-144.99;100.00;52692.69;5059590;28;20434;-67
2022/02/11 07:13:24;;;;;;;;;;;;;;;-144.99;100.00;52649.88;5067131;28;20529;-69
2022/02/11 07:15:51;;;;;;;;;;;;;;;-144.99;100.00;52725.31;5068799;28;19979;-67
2022/02/11 07:18:17;;;;;;;;;;;;;;;-144.99;100.00;52698.81;5069469;28;19987;-68
2022/02/11 07:20:43;;;;;;;;;;;;;;;-144.99;100.00;52700.84;5068695;28;19990;-66
2022/02/11 07:23:11;;;;;;;;;;;;;;;-144.99;100.00;52709.00;5063648;28;19991;-69
2022/02/11 07:25:38;;;;;;;;;;;;;;;-144.99;100.00;52704.94;5065179;28;20008;-67
2022/02/11 07:28:06;;;;;;;;;;;;;;;-144.99;100.00;52666.19;5069034;28;20001;-68
2022/02/11 07:30:32;;;;;;;;;;;;;;;-144.99;100.00;52645.81;5069146;28;19980;-67
2022/02/11 07:33:00;;;;;;;;;;;;;;;-144.99;100.00;52690.66;5068670;28;20012;-66
2022/02/11 07:35:27;;;;;;;;;;;;;;;-144.99;100.00;52713.09;5068178;28;19984;-67
2022/02/11 07:37:53;;;;;;;;;;;;;;;-144.99;100.00;52684.53;5068972;28;19984;-69
2022/02/11 07:40:20;;;;;;;;;;;;;;;-144.99;100.00;52696.78;5069282;28;19979;-68
2022/02/11 07:42:47;;;;;;;;;;;;;;;-144.99;100.00;52672.31;5068553;28;20069;-66
2022/02/11 07:45:15;;;;;;;;;;;;;;;-144.99;100.00;52672.31;5067750;28;20078;-70
2022/02/11 07:47:41;;;;;;;;;;;;;;;-144.99;100.00;52668.22;5068718;28;19991;-67
2022/02/11 07:50:08;;;;;;;;;;;;;;;-144.99;100.00;52692.69;5055714;28;19975;-67
2022/02/11 07:52:35;;;;;;;;;;;;;;;-144.99;100.00;52696.78;5062950;28;20436;-68
2022/02/11 07:55:02;;;;;;;;;;;;;;;-144.99;100.00;52651.94;5067935;28;20005;-68
2022/02/11 07:57:28;;;;;;;;;;;;;;;-144.99;100.00;52682.50;5068747;28;19965;-66
2022/02/11 07:59:54;;;;;;;;;;;;;;;-144.99;100.00;52688.63;5068170;28;19986;-67
2022/02/11 08:02:22;;;;;;;;;;;;;;;-144.99;100.00;52676.38;5068374;28;19989;-67
2022/02/11 08:04:48;;;;;;;;;;;;;;;-144.99;100.00;52692.69;5067981;28;20083;-66
2022/02/11 08:07:15;;;;;;;;;;;;;;;-144.99;100.00;52666.19;5066890;28;20597;-68
2022/02/11 08:09:41;;;;;;;;;;;;;;;-144.99;100.00;52704.94;5068191;28;19985;-67
2022/02/11 08:12:08;;;;;;;;;;;;;;;-144.99;100.00;52666.19;5068274;28;19979;-67
2022/02/11 08:14:34;;;;;;;;;;;;;;;-144.99;100.00;52696.78;5066860;28;20485;-68
2022/02/11 08:17:01;;;;;;;;;;;;;;;-144.99;100.00;52688.63;5065610;28;19978;-67
2022/02/11 08:19:28;;;;;;;;;;;;;;;-144.99;100.00;52694.72;5068786;28;20106;-66
2022/02/11 08:21:55;;;;;;;;;;;;;;;-144.99;100.00;52670.28;5068031;28;19963;-67
2022/02/11 08:24:21;;;;;;;;;;;;;;;-144.99;100.00;52713.09;5068028;28;20005;-69
2022/02/11 08:26:47;;;;;;;;;;;;;;;-144.99;100.00;52692.69;5068333;28;19988;-67
2022/02/11 08:29:14;;;;;;;;;;;;;;;-144.99;100.00;52696.78;5068579;28;19974;-67
2022/02/11 08:31:43;;;;;;;;;;;;;;;-144.99;100.00;52662.13;5064955;28;20027;-65
2022/02/11 08:34:09;;;;;;;;;;;;;;;-144.99;100.00;52715.13;5067667;28;20395;-67
2022/02/11 08:36:37;;;;;;;;;;;;;;;-144.99;100.00;52698.81;5064915;28;20378;-68
2022/02/11 08:39:03;;;;;;;;;;;;;;;-144.99;100.00;52700.84;5061837;28;19979;-67
2022/02/11 08:41:29;;;;;;;;;;;;;;;-144.99;100.00;52680.47;5066992;28;19979;-67
2022/02/11 08:43:56;;;;;;;;;;;;;;;-144.99;100.00;52692.69;5067847;28;20418;-67
2022/02/11 08:46:22;;;;;;;;;;;;;;;-144.99;100.00;52700.84;5067369;28;20005;-68
2022/02/11 08:48:49;;;;;;;;;;;;;;;-144.99;100.00;52696.78;5067994;28;19999;-66
2022/02/11 08:51:15;;;;;;;;;;;;;;;-144.99;100.00;52690.66;5066674;28;20075;-66
2022/02/11 08:53:44;;;;;;;;;;;;;;;-144.99;100.00;52694.72;5061374;28;19999;-66
2022/02/11 08:56:11;;;;;;;;;;;;;;;-144.99;100.00;52709.00;5067627;28;19977;-68
2022/02/11 08:58:38;;;;;;;;;;;;;;;-144.99;100.00;52656.00;5064106;28;20589;-67
2022/02/11 09:01:05;;;;;;;;;;;;;;;-144.99;100.00;52715.13;5066632;28;20019;-67
2022/02/11 09:03:31;;;;;;;;;;;;;;;-144.99;100.00;52656.00;5066303;28;20017;-68
2022/02/11 09:05:58;;;;;;;;;;;;;;;-144.99;100.00;52704.94;5066968;28;19981;-69
2022/02/11 09:08:25;;;;;;;;;;;;;;;-144.99;100.00;52680.47;5067434;28;20479;-66
2022/02/11 09:10:53;;;;;;;;;;;;;;;-144.99;100.00;52660.09;5051459;28;20040;-66
2022/02/11 09:13:19;;;;;;;;;;;;;;;-144.99;100.00;52704.94;5066207;28;20013;-67
2022/02/11 09:15:47;;;;;;;;;;;;;;;-144.99;100.00;52678.44;5066577;28;19982;-68
2022/02/11 09:18:14;;;;;;;;;;;;;;;-144.99;100.00;52668.22;5066771;28;20602;-65
2022/02/11 09:20:41;;;;;;;;;;;;;;;-144.99;100.00;52684.53;5066476;28;20082;-68
2022/02/11 09:23:07;;;;;;;;;;;;;;;-144.99;100.00;52688.63;5065795;28;20041;-66
2022/02/11 09:25:34;;;;;;;;;;;;;;;-144.99;100.00;52704.94;5066947;28;19979;-66
2022/02/11 09:28:01;;;;;;;;;;;;;;;-144.99;100.00;52649.88;5066661;28;20007;-65
2022/02/11 09:30:28;;;;;;;;;;;;;;;-144.99;100.00;52668.22;5067082;28;20041;-66
2022/02/11 09:32:56;;;;;;;;;;;;;;;-144.99;100.00;52668.22;5066800;28;19999;-67
2022/02/11 09:35:23;;;;;;;;;;;;;;;-144.99;100.00;52664.16;5061445;28;20132;-66
2022/02/11 09:37:50;;;;;;;;;;;;;;;-144.99;100.00;52676.38;5066933;28;19990;-65
2022/02/11 09:40:18;;;;;;;;;;;;;;;-144.99;100.00;52662.13;5066423;28;19988;-67
2022/02/11 09:42:45;;;;;;;;;;;;;;;-144.99;100.00;52672.31;5065460;28;19995;-69
2022/02/11 09:45:14;;;;;;;;;;;;;;;-144.99;100.00;52651.94;5065850;28;19977;-65
2022/02/11 09:47:41;;;;;;;;;;;;;;;-144.99;100.00;52647.84;5061805;28;19993;-66
2022/02/11 09:50:08;;;;;;;;;;;;;;;-144.99;100.00;52647.84;5066034;28;19983;-67
2022/02/11 09:52:37;;;;;;;;;;;;;;;-144.99;100.00;52660.09;5061255;28;19981;-68
2022/02/11 09:57:48;;;;;;;;;;;;;;;-144.99;100.00;52635.63;5058283;28;19984;-66
2022/02/11 10:00:16;;;;;;;;;;;;;;;-144.99;100.00;52607.09;5066182;28;19992;-65
2022/02/11 10:02:49;;;;;;;;;;;;;;;-144.99;100.00;52637.66;5066143;28;20263;-65
2022/02/11 10:05:23;;;;;;;;;;;;;;;-144.99;100.00;52627.47;5065876;28;20384;-68
2022/02/11 10:07:49;;;;;;;;;;;;;;;-144.99;97.51;52600.97;5066246;28;20023;-67
2022/02/11 10:10:38;;;;;;;;;;;;;;;-144.99;95.60;52603.00;5066614;28;19981;-66
2022/02/11 10:13:05;;;;;;;;;;;;;;;-144.99;91.93;52623.38;5066115;28;20075;-67
2022/02/11 10:15:34;;;;;;;;;;;;;;;-144.99;93.00;52598.94;5057091;28;19988;-66
2022/02/11 10:18:01;;;;;;;;;;;;;;;-144.99;89.92;52631.53;4715466;28;10000146;-67
2022/02/11 10:20:29;;;;;;;;;;;;;;;-144.99;89.05;52639.69;5066000;28;19989;-68
2022/02/11 10:23:10;;;;;;;;;;;;;;;-144.99;90.33;52651.94;5066614;28;19985;-66
2022/02/11 10:25:51;;;;;;;;;;;;;;;-144.99;90.77;52643.78;5065589;28;20016;-67
2022/02/11 10:28:22;;;;;;;;;;;;;;;-144.99;91.16;52635.63;5066436;28;20170;-67
2022/02/11 10:31:03;;;;;;;;;;;;;;;-144.99;91.50;52627.47;5069450;28;20291;-67
2022/02/11 10:33:29;;;;;;;;;;;;;;;-144.99;91.46;52645.81;5070226;28;20088;-66
2022/02/11 10:35:56;;;;;;;;;;;;;;;-144.99;92.13;52631.53;5069852;28;19976;-67
2022/02/11 10:38:29;;;;;;;;;;;;;;;-144.99;90.41;52639.69;5057925;28;19981;-67
2022/02/11 10:40:59;;;;;;;;;;;;;;;-144.99;91.84;52635.63;5059913;28;19980;-67
2022/02/11 10:43:29;;;;;;;;;;;;;;;-144.99;90.27;52613.19;5070407;28;20061;-69
2022/02/11 10:46:01;;;;;;;;;;;;;;;-144.99;90.25;52623.38;5069357;28;20067;-66
2022/02/11 10:48:34;;;;;;;;;;;;;;;-144.99;89.82;52611.16;5070254;28;20030;-67
2022/02/11 10:51:01;;;;;;;;;;;;;;;-144.99;89.95;52660.09;5069681;28;20476;-67
2022/02/11 10:53:29;;;;;;;;;;;;;;;-144.99;90.09;52619.31;5069462;28;20004;-65
2022/02/11 10:55:56;;;;;;;;;;;;;;;-144.99;89.77;52627.47;5084809;22;19991;-67
2022/02/11 10:58:23;;;;;;;;;;;;;;;-144.99;88.44;52664.16;5063110;28;19979;-68
2022/02/11 11:00:50;;;;;;;;;;;;;;;-144.99;87.65;52627.47;5070705;28;19973;-68
2022/02/11 11:03:16;;;;;;;;;;;;;;;-144.99;85.79;52641.72;5070714;28;20422;-68
2022/02/11 11:05:45;;;;;;;;;;;;;;;-144.99;84.54;52598.94;5070635;28;19991;-68
2022/02/11 11:08:13;;;;;;;;;;;;;;;-144.99;81.87;52590.78;5070880;28;20000;-67
2022/02/11 11:10:41;;;;;;;;;;;;;;;-144.99;79.46;52592.81;5060413;28;20366;-68
2022/02/11 11:13:10;;;;;;;;;;;;;;;-144.99;79.10;52619.31;5069969;28;20521;-68
2022/02/11 11:15:37;;;;;;;;;;;;;;;-144.99;79.51;52613.19;5070461;28;20061;-68
2022/02/11 11:18:06;;;;;;;;;;;;;;;-144.99;80.54;52651.94;5069663;28;19981;-68
2022/02/11 11:20:35;;;;;;;;;;;;;;;-144.99;81.88;52664.16;5070527;28;19980;-68
2022/02/11 11:23:04;;;;;;;;;;;;;;;-144.99;82.16;52647.84;5068403;28;19993;-68
2022/02/11 11:25:50;;;;;;;;;;;;;;;-144.99;82.46;52678.44;5070079;28;19981;-68
2022/02/11 11:28:37;;;;;;;;;;;;;;;-144.99;82.75;52680.47;5070335;28;20008;-68
2022/02/11 11:31:09;;;;;;;;;;;;;;;-144.99;82.25;52653.97;5070517;28;20443;-68
2022/02/11 11:33:36;;;;;;;;;;;;;;;-144.99;82.86;52668.22;5069277;28;19996;-68
2022/02/11 11:36:05;;;;;;;;;;;;;;;-144.99;83.62;52603.00;5070473;28;19985;-68
2022/02/11 11:38:41;;;;;;;;;;;;;;;-144.99;84.07;52464.41;5070207;28;19981;-68
2022/02/11 11:41:10;;;;;;;;;;;;;;;-144.99;77.57;52431.78;5069558;28;20443;-68
2022/02/11 11:43:37;;;;;;;;;;;;;;;-144.99;69.57;52472.56;5069353;28;20090;-68
2022/02/11 11:46:04;;;;;;;;;;;;;;;-144.99;63.20;52505.16;5069683;28;20686;-68
2022/02/11 11:48:40;;;;;;;;;;;;;;;-144.99;58.28;52545.94;5069849;28;19994;-68
2022/02/11 11:51:07;;;;;;;;;;;;;;;-144.99;56.22;52562.25;5066335;28;20249;-68
2022/02/11 11:53:33;;;;;;;;;;;;;;;-144.99;57.33;52582.63;5080210;28;20003;-68
2022/02/11 11:56:01;;;;;;;;;;;;;;;-144.99;60.08;52611.16;5082523;28;20040;-68
2022/02/11 11:58:33;;;;;;;;;;;;;;;-144.99;62.53;52619.31;5080551;28;19987;-68
2022/02/11 12:01:00;;;;;;;;;;;;;;;-144.99;65.09;52623.38;5070801;28;20438;-68
2022/02/11 12:03:27;;;;;;;;;;;;;;;-144.99;66.82;52584.66;5068840;28;20125;-68
2022/02/11 12:05:55;;;;;;;;;;;;;;;-144.99;69.88;52623.38;5068279;28;20048;-69
2022/02/11 12:08:24;;;;;;;;;;;;;;;-144.99;73.53;52674.34;5069869;28;19996;-69
2022/02/11 12:10:51;;;;;;;;;;;;;;;-144.99;76.15;52625.44;5069457;28;20018;-69
2022/02/11 12:13:19;;;;;;;;;;;;;;;-144.99;77.68;52664.16;5069141;28;20026;-68
2022/02/11 12:15:46;;;;;;;;;;;;;;;-144.99;80.46;52668.22;5068882;28;20018;-68
2022/02/11 12:18:13;;;;;;;;;;;;;;;-144.99;80.58;52668.22;5069349;28;19986;-68
2022/02/11 12:20:39;;;;;;;;;;;;;;;-144.99;82.37;52635.63;5068738;28;19990;-69
2022/02/11 12:28:36;;;;;;;;;;;;;;;-144.99;83.75;52676.38;5069410;28;20149;-68
2022/02/11 12:31:06;;;;;;;;;;;;;;;-144.99;83.85;52688.63;5069508;28;19984;-68
2022/02/11 12:33:32;;;;;;;;;;;;;;;-144.99;83.63;52700.84;5069623;28;20001;-69
2022/02/11 12:36:07;;;;;;;;;;;;;;;-144.99;85.20;52656.00;5068061;28;19984;-68
2022/02/11 12:38:34;;;;;;;;;;;;;;;-144.99;85.49;52676.38;5063442;28;19980;-68
2022/02/11 12:41:00;;;;;;;;;;;;;;;-144.99;87.02;52658.03;5060886;28;19980;-68
2022/02/11 12:43:29;;;;;;;;;;;;;;;-144.99;87.28;52643.78;5068919;28;20098;-68
2022/02/11 12:45:57;;;;;;;;;;;;;;;-144.99;88.88;52717.16;5068637;28;20004;-69
2022/02/11 12:48:29;;;;;;;;;;;;;;;-144.99;84.97;52717.16;5068631;28;19988;-68
2022/02/11 12:50:56;;;;;;;;;;;;;;;-144.99;83.94;52682.50;5068865;28;19982;-66
2022/02/11 12:53:25;;;;;;;;;;;;;;;-144.99;82.46;52704.94;5067792;28;19997;-65
2022/02/11 12:55:52;;;;;;;;;;;;;;;-144.99;82.42;52651.94;5068604;28;19989;-67
2022/02/11 12:58:19;;;;;;;;;;;;;;;-144.99;81.91;52656.00;5067794;28;20040;-67
2022/02/11 13:00:48;;;;;;;;;;;;;;;-144.99;80.47;52713.09;5068532;28;20074;-67
2022/02/11 13:03:18;;;;;;;;;;;;;;;-144.99;79.03;52696.78;5068477;28;20706;-71
2022/02/11 13:05:48;;;;;;;;;;;;;;;-144.99;78.60;52666.19;5069238;28;19973;-68
2022/02/11 13:08:19;;;;;;;;;;;;;;;-144.99;78.31;52692.69;5070474;28;19979;-68
2022/02/11 13:10:46;;;;;;;;;;;;;;;-144.99;77.97;52692.69;5057921;28;20363;-68
2022/02/11 13:13:14;;;;;;;;;;;;;;;-144.99;76.13;52700.84;5059246;28;19989;-68
2022/02/11 13:15:45;;;;;;;;;;;;;;;-144.99;76.19;52696.78;5068448;28;19985;-74
2022/02/11 13:18:12;;;;;;;;;;;;;;;-144.99;75.31;52664.16;5067699;28;19977;-68
2022/02/11 13:20:41;;;;;;;;;;;;;;;-144.99;74.28;52651.94;5068392;28;19988;-69
2022/02/11 13:23:08;;;;;;;;;;;;;;;-144.99;72.32;52594.84;5068142;28;20243;-68
2022/02/11 13:25:35;;;;;;;;;;;;;;;-144.99;69.07;52656.00;5069304;28;19990;-69
2022/02/11 13:28:06;;;;;;;;;;;;;;;-144.99;65.96;52586.69;5068823;28;19990;-69
2022/02/11 13:30:33;;;;;;;;;;;;;;;-144.99;62.54;52509.25;5068602;28;20341;-68
2022/02/11 13:33:01;;;;;;;;;;;;;;;-144.99;58.42;52545.94;5068752;28;20000;-68
2022/02/11 13:35:28;;;;;;;;;;;;;;;-144.99;53.29;52521.47;5068328;28;19983;-68
2022/02/11 13:38:00;;;;;;;;;;;;;;;-144.99;50.91;52419.56;5068269;28;19978;-68
2022/02/11 13:40:27;;;;;;;;;;;;;;;-144.99;47.76;52431.78;5067797;28;19979;-67
2022/02/11 13:43:02;;;;;;;;;;;;;;;-144.99;44.46;52338.03;5068092;28;20047;-67
2022/02/11 13:45:29;;;;;;;;;;;;;;;-144.99;41.10;52338.03;5067450;28;19982;-67
2022/02/11 13:48:01;;;;;;;;;;;;;;;-144.99;38.51;52317.66;5065890;28;20065;-67
2022/02/11 13:50:28;;;;;;;;;;;;;;;-144.99;37.20;52321.72;5066336;28;20042;-66
2022/02/11 13:53:06;;;;;;;;;;;;;;;-144.99;36.26;52301.34;5066759;28;20087;-67
2022/02/11 13:55:33;;;;;;;;;;;;;;;-144.99;35.64;52329.88;5065132;28;19973;-67
2022/02/11 13:58:13;;;;;;;;;;;;;;;-144.99;34.49;52264.66;5063687;28;20069;-67
2022/02/11 14:00:40;;;;;;;;;;;;;;;-144.99;34.57;52293.19;5063040;28;19978;-68
2022/02/11 14:03:22;;;;;;;;;;;;;;;-144.99;33.59;52272.81;5069033;28;19969;-67
2022/02/11 14:05:49;;;;;;;;;;;;;;;-144.99;33.65;52354.34;5067634;28;19957;-68
2022/02/11 14:08:18;;;;;;;;;;;;;;;-144.99;33.44;52327.84;5069095;28;20012;-67
2022/02/11 14:10:46;;;;;;;;;;;;;;;-144.99;33.38;52323.75;5068820;28;19960;-67
2022/02/11 14:13:13;;;;;;;;;;;;;;;-144.99;33.24;52309.50;5068192;28;20251;-67
2022/02/11 14:15:41;;;;;;;;;;;;;;;-144.99;33.19;52313.56;5065350;28;19959;-68
2022/02/11 14:18:08;;;;;;;;;;;;;;;-144.99;32.74;52372.69;5069405;28;20065;-66
2022/02/11 14:20:36;;;;;;;;;;;;;;;-144.99;32.81;52384.91;5068756;28;20301;-66
2022/02/11 14:23:11;;;;;;;;;;;;;;;-144.99;33.29;52374.72;5067688;28;20375;-67
2022/02/11 14:25:39;;;;;;;;;;;;;;;-144.99;32.80;52378.78;5064527;28;19952;-70
2022/02/11 14:28:05;;;;;;;;;;;;;;;-144.99;32.30;52309.50;5067153;28;19952;-67
2022/02/11 14:30:32;;;;;;;;;;;;;;;-144.99;32.26;52338.03;5066859;28;20647;-67
2022/02/11 14:32:58;;;;;;;;;;;;;;;-144.99;31.87;52301.34;5067702;28;19990;-68
2022/02/11 14:35:25;;;;;;;;;;;;;;;-144.99;31.65;52333.94;5052063;28;19989;-68
2022/02/11 14:37:51;;;;;;;;;;;;;;;-144.99;31.91;52378.78;5063799;28;19976;-67
2022/02/11 14:40:17;;;;;;;;;;;;;;;-144.99;32.16;52333.94;5061484;28;19969;-67
2022/02/11 14:42:45;;;;;;;;;;;;;;;-144.99;32.77;52407.31;5066350;28;19968;-68
2022/02/11 14:45:12;;;;;;;;;;;;;;;-144.99;32.83;52370.63;5066545;28;20360;-67
2022/02/11 14:47:41;;;;;;;;;;;;;;;-144.99;33.27;52366.56;5067180;28;20331;-67
2022/02/11 14:50:11;;;;;;;;;;;;;;;-144.99;32.59;52342.09;5066946;28;20138;-68
2022/02/11 14:52:37;;;;;;;;;;;;;;;-144.99;32.75;52384.91;5066841;28;20475;-69
2022/02/11 14:55:04;;;;;;;;;;;;;;;-144.99;32.71;52441.97;5064006;28;19964;-68
2022/02/11 14:57:30;;;;;;;;;;;;;;;-144.99;32.85;52452.16;5061693;28;19973;-68
2022/02/11 14:59:58;;;;;;;;;;;;;;;-144.99;32.67;52521.47;5063022;28;20350;-69
2022/02/11 15:02:24;;;;;;;;;;;;;;;-144.99;33.63;52497.00;5064382;28;19960;-69
2022/02/11 15:04:51;;;;;;;;;;;;;;;-144.99;33.51;52472.56;5053036;28;20379;-69
2022/02/11 15:07:17;;;;;;;;;;;;;;;-144.99;33.83;52527.59;5057402;28;19932;-68
2022/02/11 15:09:45;;;;;;;;;;;;;;;-144.99;34.12;52533.69;5061924;28;19990;-68
2022/02/11 15:12:11;;;;;;;;;;;;;;;-144.99;34.31;52505.16;5061445;28;19956;-68
2022/02/11 15:14:37;;;;;;;;;;;;;;;-144.99;34.52;52541.84;5064022;28;19973;-67
2022/02/11 15:17:05;;;;;;;;;;;;;;;-144.99;34.85;52594.84;5066551;28;19950;-70
2022/02/11 15:19:32;;;;;;;;;;;;;;;-144.99;34.67;52582.63;5067407;28;19983;-68
2022/02/11 15:21:58;;;;;;;;;;;;;;;-144.99;35.46;52590.78;5064045;28;20289;-68
2022/02/11 15:24:26;;;;;;;;;;;;;;;-144.99;37.03;52676.38;5067253;28;19983;-67
2022/02/11 15:26:52;;;;;;;;;;;;;;;-144.99;38.24;52696.78;5067992;28;20099;-68
2022/02/11 15:29:19;;;;;;;;;;;;;;;-144.99;40.25;52713.09;5065258;28;19990;-67
2022/02/11 15:31:46;;;;;;;;;;;;;;;-144.99;41.36;52700.84;5061546;28;20000;-68
2022/02/11 15:34:14;;;;;;;;;;;;;;;-144.99;42.73;52735.50;5066461;28;19989;-68
2022/02/11 15:36:40;;;;;;;;;;;;;;;-144.99;43.83;52743.66;5067095;28;20354;-68
2022/02/11 15:39:07;;;;;;;;;;;;;;;-144.99;44.57;52713.09;5068374;28;19981;-68
2022/02/11 15:41:33;;;;;;;;;;;;;;;-144.99;45.39;52741.63;5069184;28;19981;-68
2022/02/11 15:44:00;;;;;;;;;;;;;;;-144.99;46.12;52704.94;5069176;28;20447;-69